»·PEaware :: N626PX KBOI-KJAC

N626PX :: KBOI-KJAC

FLIGHT INFORMATION

Flight Status: Arrived
Operator: Privately registered:
United States
More flights under this callsign
Pilot: Alvin H. (31449)
Aircraft: SOCATA TBM-900
(TBM9)
More flights by this aircraft type
Origin: KBOI Boise Air Terminal/Gowen
United States
Destination: KJAC Jackson Hole
United States
More flights between these airports :: More routes between these airports
Route: +KBOI KSUN KJAC
File this flight plan on PilotEdge
Remarks:
Altitude:
(Current/Filed)
15,500ft
Speed:
(Current/Filed)
220kts
Departed: 25-Sep-20 11:45 AM
Arrived: 25-Sep-20 12:50 PM
Distance/Time
Traveled:
238nm/1:05
Distance/Time
To Go:
Arrived

Flight Plot

Page will automatically refresh every two minutes.

Flight plan parsing failed; only flown route is shown


Map Options




Map Legend


Flown Route
Filed Route
Departure Airport
Arrival Airport
Navaid (VOR, NDB)
Fix

Horizontal Profiles

Position Reports

Time Latitude Longitude Heading Altitude Ground
Speed
25-Sep-20 11:28 43.569181 -116.227528 177 2844ft 0kts
25-Sep-20 11:29 43.569181 -116.227528 177 2844ft 0kts
25-Sep-20 11:30 43.569181 -116.227528 177 2844ft 0kts
25-Sep-20 11:31 43.569181 -116.227528 177 2844ft 0kts
25-Sep-20 11:32 43.569181 -116.227528 177 2844ft 0kts
25-Sep-20 11:33 43.569181 -116.227528 177 2844ft 0kts
25-Sep-20 11:34 43.569181 -116.227528 177 2844ft 0kts
25-Sep-20 11:34 43.569181 -116.227528 177 2844ft 0kts
25-Sep-20 11:36 43.569181 -116.227528 177 2844ft 0kts
25-Sep-20 11:36 43.569181 -116.227528 177 2844ft 0kts
25-Sep-20 11:38 43.569181 -116.227528 177 2844ft 0kts
25-Sep-20 11:39 43.569181 -116.227528 177 2844ft 0kts
25-Sep-20 11:39 43.569181 -116.227528 177 2844ft 0kts
25-Sep-20 11:40 43.568758 -116.229036 288 2843ft 8kts
25-Sep-20 11:41 43.570118 -116.232573 315 2838ft 11kts
25-Sep-20 11:42 43.570966 -116.236211 221 2835ft 0kts
25-Sep-20 11:43 43.570966 -116.236211 221 2835ft 0kts
25-Sep-20 11:44 43.569663 -116.235162 116 2839ft 45kts
25-Sep-20 11:45 43.554716 -116.192049 118 3737ft 162kts
25-Sep-20 11:46 43.529224 -116.131634 127 5088ft 196kts
25-Sep-20 11:47 43.495292 -116.069621 128 6520ft 202kts
25-Sep-20 11:48 43.462132 -116.008708 130 8502ft 180kts
25-Sep-20 11:49 43.430548 -115.944279 131 9378ft 224kts
25-Sep-20 11:50 43.388901 -115.880098 139 10065ft 238kts
25-Sep-20 11:51 43.345435 -115.815285 125 11256ft 224kts
25-Sep-20 11:52 43.321465 -115.736682 113 12767ft 217kts
25-Sep-20 11:53 43.312362 -115.645648 96 13402ft 246kts
25-Sep-20 11:54 43.301367 -115.553507 80 14498ft 248kts
25-Sep-20 11:55 43.316938 -115.462462 88 15370ft 251kts
25-Sep-20 11:56 43.324652 -115.362474 85 15465ft 267kts
25-Sep-20 11:57 43.332957 -115.260876 84 15464ft 267kts
25-Sep-20 11:58 43.340942 -115.160336 84 15465ft 264kts
25-Sep-20 11:59 43.348880 -115.060471 84 15464ft 262kts
25-Sep-20 12:00 43.356678 -114.961059 84 15458ft 261kts
25-Sep-20 12:01 43.364340 -114.862243 84 15456ft 260kts
25-Sep-20 12:02 43.371958 -114.762966 84 15446ft 262kts
25-Sep-20 12:03 43.379586 -114.662492 84 15300ft 264kts
25-Sep-20 12:04 43.387112 -114.561980 84 15300ft 263kts
25-Sep-20 12:05 43.394522 -114.461633 84 15299ft 264kts
25-Sep-20 12:06 43.401916 -114.360929 84 15301ft 264kts
25-Sep-20 12:07 43.409208 -114.260091 84 15291ft 264kts
25-Sep-20 12:08 43.416388 -114.159458 85 15300ft 265kts
25-Sep-20 12:09 43.423542 -114.057584 85 15261ft 265kts
25-Sep-20 12:10 43.430567 -113.956837 84 15295ft 265kts
25-Sep-20 12:11 43.437530 -113.855503 85 15286ft 267kts
25-Sep-20 12:12 43.444406 -113.754050 85 15292ft 268kts
25-Sep-20 12:13 43.451266 -113.651495 84 15269ft 268kts
25-Sep-20 12:14 43.457986 -113.549462 85 15271ft 269kts
25-Sep-20 12:15 43.464673 -113.446922 85 15267ft 269kts
25-Sep-20 12:16 43.471289 -113.343767 85 15263ft 271kts
25-Sep-20 12:17 43.477849 -113.240068 85 15258ft 272kts
25-Sep-20 12:18 43.484336 -113.135970 85 15252ft 273kts
25-Sep-20 12:19 43.490762 -113.031285 85 15251ft 275kts
25-Sep-20 12:20 43.497144 -112.925705 86 15246ft 277kts
25-Sep-20 12:21 43.503481 -112.819340 86 15245ft 279kts
25-Sep-20 12:22 43.509738 -112.712440 86 15247ft 281kts
25-Sep-20 12:23 43.515935 -112.605043 86 15232ft 281kts
25-Sep-20 12:24 43.522050 -112.497173 86 15240ft 282kts
25-Sep-20 12:25 43.528127 -112.389128 86 15241ft 282kts
25-Sep-20 12:26 43.534003 -112.281160 86 15238ft 283kts
25-Sep-20 12:27 43.539814 -112.172981 86 15245ft 283kts
25-Sep-20 12:28 43.545530 -112.064925 86 15250ft 282kts
25-Sep-20 12:29 43.551058 -111.957424 89 15259ft 281kts
25-Sep-20 12:30 43.541214 -111.849491 102 14752ft 289kts
25-Sep-20 12:31 43.527826 -111.740990 102 13967ft 283kts
25-Sep-20 12:32 43.515390 -111.635763 101 13154ft 272kts
25-Sep-20 12:33 43.502797 -111.535298 101 12347ft 261kts
25-Sep-20 12:34 43.489830 -111.438039 101 11530ft 254kts
25-Sep-20 12:35 43.456656 -111.358865 134 11313ft 234kts
25-Sep-20 12:36 43.412065 -111.295363 135 11313ft 228kts
25-Sep-20 12:37 43.368112 -111.232553 134 11320ft 228kts
25-Sep-20 12:38 43.324289 -111.169332 131 11360ft 223kts
25-Sep-20 12:39 43.316874 -111.096609 53 12074ft 210kts
25-Sep-20 12:40 43.354634 -111.029836 51 11915ft 225kts
25-Sep-20 12:41 43.394163 -110.959544 56 10941ft 230kts
25-Sep-20 12:42 43.432704 -110.893147 40 9686ft 224kts
25-Sep-20 12:43 43.475838 -110.832903 47 9008ft 218kts
25-Sep-20 12:44 43.520682 -110.774396 40 8222ft 212kts
25-Sep-20 12:45 43.563240 -110.738269 19 8091ft 161kts
25-Sep-20 12:46 43.605886 -110.720031 15 7843ft 162kts
25-Sep-20 12:47 43.633187 -110.725569 213 7385ft 110kts
25-Sep-20 12:48 43.607729 -110.737549 199 6439ft 64kts
25-Sep-20 12:49 43.599514 -110.740533 106 6418ft 8kts
25-Sep-20 12:50 43.599638 -110.739974 31 6418ft 0kts
25-Sep-20 12:51 43.600171 -110.738638 19 6420ft 7kts
25-Sep-20 12:52 43.601350 -110.737617 108 6423ft 1kts
25-Sep-20 12:53 43.601345 -110.737596 106 6423ft 0kts

Navigation Log

Ident Type
Flight plan parsing failed, navigation log unavailable